sensor_id;sensor_type;location;lat;lon;timestamp;P1;durP1;ratioP1;P2;durP2;ratioP2
14799;SDS011;7491;57.750;11.970;2023-12-20T00:00:15;18.65;;;3.40;;
14799;SDS011;7491;57.750;11.970;2023-12-20T00:02:41;22.67;;;4.00;;
14799;SDS011;7491;57.750;11.970;2023-12-20T00:05:12;22.63;;;3.58;;
14799;SDS011;7491;57.750;11.970;2023-12-20T00:07:39;15.98;;;3.45;;
14799;SDS011;7491;57.750;11.970;2023-12-20T00:10:05;15.85;;;3.58;;
14799;SDS011;7491;57.750;11.970;2023-12-20T00:12:33;29.83;;;3.30;;
14799;SDS011;7491;57.750;11.970;2023-12-20T00:15:01;21.38;;;3.65;;
14799;SDS011;7491;57.750;11.970;2023-12-20T00:17:28;22.10;;;3.85;;
14799;SDS011;7491;57.750;11.970;2023-12-20T00:19:54;23.83;;;3.88;;
14799;SDS011;7491;57.750;11.970;2023-12-20T00:22:21;20.08;;;3.17;;
14799;SDS011;7491;57.750;11.970;2023-12-20T00:24:48;20.10;;;3.33;;
14799;SDS011;7491;57.750;11.970;2023-12-20T00:27:14;18.65;;;3.72;;
14799;SDS011;7491;57.750;11.970;2023-12-20T00:29:41;23.42;;;3.70;;
14799;SDS011;7491;57.750;11.970;2023-12-20T00:32:14;23.40;;;3.40;;
14799;SDS011;7491;57.750;11.970;2023-12-20T00:34:40;18.92;;;2.83;;
14799;SDS011;7491;57.750;11.970;2023-12-20T00:37:07;22.77;;;3.10;;
14799;SDS011;7491;57.750;11.970;2023-12-20T00:39:34;26.08;;;4.60;;
14799;SDS011;7491;57.750;11.970;2023-12-20T00:42:00;20.50;;;3.80;;
14799;SDS011;7491;57.750;11.970;2023-12-20T00:44:27;19.35;;;3.13;;
14799;SDS011;7491;57.750;11.970;2023-12-20T00:46:54;13.65;;;2.85;;
14799;SDS011;7491;57.750;11.970;2023-12-20T00:49:21;16.02;;;3.17;;
14799;SDS011;7491;57.750;11.970;2023-12-20T00:51:47;27.10;;;3.67;;
14799;SDS011;7491;57.750;11.970;2023-12-20T00:54:15;26.23;;;4.00;;
14799;SDS011;7491;57.750;11.970;2023-12-20T00:56:42;16.15;;;3.15;;
14799;SDS011;7491;57.750;11.970;2023-12-20T00:59:08;29.17;;;3.55;;
14799;SDS011;7491;57.750;11.970;2023-12-20T01:01:35;14.63;;;3.08;;
14799;SDS011;7491;57.750;11.970;2023-12-20T01:04:03;25.30;;;3.45;;
14799;SDS011;7491;57.750;11.970;2023-12-20T01:06:31;12.20;;;2.15;;
14799;SDS011;7491;57.750;11.970;2023-12-20T01:08:58;24.17;;;3.58;;
14799;SDS011;7491;57.750;11.970;2023-12-20T01:11:24;22.00;;;3.40;;
14799;SDS011;7491;57.750;11.970;2023-12-20T01:13:51;24.63;;;3.35;;
14799;SDS011;7491;57.750;11.970;2023-12-20T01:16:18;23.20;;;4.13;;
14799;SDS011;7491;57.750;11.970;2023-12-20T01:18:44;16.13;;;3.17;;
14799;SDS011;7491;57.750;11.970;2023-12-20T01:21:11;20.00;;;4.30;;
14799;SDS011;7491;57.750;11.970;2023-12-20T01:23:39;23.95;;;3.28;;
14799;SDS011;7491;57.750;11.970;2023-12-20T01:26:06;20.25;;;3.85;;
14799;SDS011;7491;57.750;11.970;2023-12-20T01:28:33;21.52;;;3.55;;
14799;SDS011;7491;57.750;11.970;2023-12-20T01:31:00;17.05;;;3.13;;
14799;SDS011;7491;57.750;11.970;2023-12-20T01:33:26;23.80;;;2.80;;
14799;SDS011;7491;57.750;11.970;2023-12-20T01:35:53;24.45;;;3.70;;
14799;SDS011;7491;57.750;11.970;2023-12-20T01:38:19;23.70;;;2.92;;
14799;SDS011;7491;57.750;11.970;2023-12-20T01:40:47;21.80;;;3.38;;
14799;SDS011;7491;57.750;11.970;2023-12-20T01:43:14;20.80;;;2.83;;
14799;SDS011;7491;57.750;11.970;2023-12-20T01:45:41;16.58;;;2.80;;
14799;SDS011;7491;57.750;11.970;2023-12-20T01:48:08;12.73;;;2.60;;
14799;SDS011;7491;57.750;11.970;2023-12-20T01:50:36;19.70;;;4.60;;
14799;SDS011;7491;57.750;11.970;2023-12-20T01:53:03;14.57;;;2.85;;
14799;SDS011;7491;57.750;11.970;2023-12-20T01:55:33;18.17;;;3.13;;
14799;SDS011;7491;57.750;11.970;2023-12-20T01:58:03;17.08;;;2.50;;
14799;SDS011;7491;57.750;11.970;2023-12-20T02:00:30;23.25;;;2.80;;
14799;SDS011;7491;57.750;11.970;2023-12-20T02:02:57;17.20;;;2.65;;
14799;SDS011;7491;57.750;11.970;2023-12-20T02:05:27;17.88;;;2.83;;
14799;SDS011;7491;57.750;11.970;2023-12-20T02:07:54;18.65;;;3.03;;
14799;SDS011;7491;57.750;11.970;2023-12-20T02:10:20;24.40;;;3.25;;
14799;SDS011;7491;57.750;11.970;2023-12-20T02:12:48;21.10;;;4.00;;
14799;SDS011;7491;57.750;11.970;2023-12-20T02:15:16;15.35;;;3.20;;
14799;SDS011;7491;57.750;11.970;2023-12-20T02:17:42;23.15;;;2.88;;
14799;SDS011;7491;57.750;11.970;2023-12-20T02:20:10;23.38;;;3.08;;
14799;SDS011;7491;57.750;11.970;2023-12-20T02:22:38;23.90;;;3.35;;
14799;SDS011;7491;57.750;11.970;2023-12-20T02:25:05;17.58;;;2.88;;
14799;SDS011;7491;57.750;11.970;2023-12-20T02:27:32;21.25;;;3.50;;
14799;SDS011;7491;57.750;11.970;2023-12-20T02:30:00;17.85;;;3.05;;
14799;SDS011;7491;57.750;11.970;2023-12-20T02:32:28;13.65;;;2.70;;
14799;SDS011;7491;57.750;11.970;2023-12-20T02:34:55;15.50;;;2.40;;
14799;SDS011;7491;57.750;11.970;2023-12-20T02:37:22;14.25;;;3.00;;
14799;SDS011;7491;57.750;11.970;2023-12-20T02:39:50;22.17;;;2.45;;
14799;SDS011;7491;57.750;11.970;2023-12-20T02:42:17;20.92;;;2.85;;
14799;SDS011;7491;57.750;11.970;2023-12-20T02:44:43;21.35;;;4.15;;
14799;SDS011;7491;57.750;11.970;2023-12-20T02:47:10;24.25;;;3.75;;
14799;SDS011;7491;57.750;11.970;2023-12-20T02:49:37;24.08;;;3.05;;
14799;SDS011;7491;57.750;11.970;2023-12-20T02:52:04;17.10;;;2.60;;
14799;SDS011;7491;57.750;11.970;2023-12-20T02:54:31;24.67;;;3.85;;
14799;SDS011;7491;57.750;11.970;2023-12-20T02:56:59;15.75;;;2.67;;
14799;SDS011;7491;57.750;11.970;2023-12-20T02:59:25;19.58;;;2.85;;
14799;SDS011;7491;57.750;11.970;2023-12-20T03:01:52;24.05;;;4.00;;
14799;SDS011;7491;57.750;11.970;2023-12-20T03:04:18;22.05;;;3.33;;
14799;SDS011;7491;57.750;11.970;2023-12-20T03:06:45;21.40;;;2.90;;
14799;SDS011;7491;57.750;11.970;2023-12-20T03:09:12;20.05;;;4.22;;
14799;SDS011;7491;57.750;11.970;2023-12-20T03:11:38;13.82;;;2.70;;
14799;SDS011;7491;57.750;11.970;2023-12-20T03:14:06;22.23;;;3.67;;
14799;SDS011;7491;57.750;11.970;2023-12-20T03:16:33;18.33;;;2.80;;
14799;SDS011;7491;57.750;11.970;2023-12-20T03:19:00;19.60;;;3.25;;
14799;SDS011;7491;57.750;11.970;2023-12-20T03:21:26;11.23;;;2.35;;
14799;SDS011;7491;57.750;11.970;2023-12-20T03:23:53;17.15;;;2.65;;
14799;SDS011;7491;57.750;11.970;2023-12-20T03:26:20;21.50;;;3.10;;
14799;SDS011;7491;57.750;11.970;2023-12-20T03:28:47;14.63;;;2.55;;
14799;SDS011;7491;57.750;11.970;2023-12-20T03:31:16;19.42;;;3.00;;
14799;SDS011;7491;57.750;11.970;2023-12-20T03:33:42;19.55;;;3.65;;
14799;SDS011;7491;57.750;11.970;2023-12-20T03:36:09;17.33;;;3.38;;
14799;SDS011;7491;57.750;11.970;2023-12-20T03:38:35;14.65;;;2.67;;
14799;SDS011;7491;57.750;11.970;2023-12-20T03:41:02;13.10;;;3.00;;
14799;SDS011;7491;57.750;11.970;2023-12-20T03:43:29;11.55;;;2.47;;
14799;SDS011;7491;57.750;11.970;2023-12-20T03:45:55;11.38;;;2.10;;
14799;SDS011;7491;57.750;11.970;2023-12-20T03:48:22;12.90;;;2.28;;
14799;SDS011;7491;57.750;11.970;2023-12-20T03:50:49;8.38;;;1.85;;
14799;SDS011;7491;57.750;11.970;2023-12-20T03:53:16;7.65;;;1.60;;
14799;SDS011;7491;57.750;11.970;2023-12-20T03:55:42;15.80;;;2.33;;
14799;SDS011;7491;57.750;11.970;2023-12-20T03:58:09;11.35;;;2.60;;
14799;SDS011;7491;57.750;11.970;2023-12-20T04:00:36;8.70;;;2.25;;
14799;SDS011;7491;57.750;11.970;2023-12-20T04:03:02;7.95;;;2.67;;
14799;SDS011;7491;57.750;11.970;2023-12-20T04:05:31;17.98;;;2.28;;
14799;SDS011;7491;57.750;11.970;2023-12-20T04:07:59;10.27;;;2.03;;
14799;SDS011;7491;57.750;11.970;2023-12-20T04:10:28;13.25;;;2.47;;
14799;SDS011;7491;57.750;11.970;2023-12-20T04:12:54;14.25;;;2.30;;
14799;SDS011;7491;57.750;11.970;2023-12-20T04:15:21;14.07;;;2.33;;
14799;SDS011;7491;57.750;11.970;2023-12-20T04:17:48;11.50;;;1.98;;
14799;SDS011;7491;57.750;11.970;2023-12-20T04:20:14;16.58;;;2.70;;
14799;SDS011;7491;57.750;11.970;2023-12-20T04:22:42;16.85;;;2.88;;
14799;SDS011;7491;57.750;11.970;2023-12-20T04:25:09;9.68;;;1.85;;
14799;SDS011;7491;57.750;11.970;2023-12-20T04:27:36;9.85;;;1.60;;
14799;SDS011;7491;57.750;11.970;2023-12-20T04:30:02;6.53;;;1.35;;
14799;SDS011;7491;57.750;11.970;2023-12-20T04:32:29;9.98;;;2.15;;
14799;SDS011;7491;57.750;11.970;2023-12-20T04:34:56;8.60;;;1.80;;
14799;SDS011;7491;57.750;11.970;2023-12-20T04:37:23;5.15;;;1.40;;
14799;SDS011;7491;57.750;11.970;2023-12-20T04:39:51;6.35;;;1.50;;
14799;SDS011;7491;57.750;11.970;2023-12-20T04:42:18;16.10;;;1.85;;
14799;SDS011;7491;57.750;11.970;2023-12-20T04:44:44;15.30;;;2.40;;
14799;SDS011;7491;57.750;11.970;2023-12-20T04:47:11;6.95;;;1.70;;
14799;SDS011;7491;57.750;11.970;2023-12-20T04:49:37;13.95;;;3.20;;
14799;SDS011;7491;57.750;11.970;2023-12-20T04:52:04;11.15;;;1.60;;
14799;SDS011;7491;57.750;11.970;2023-12-20T04:54:31;9.18;;;2.17;;
14799;SDS011;7491;57.750;11.970;2023-12-20T04:57:00;17.83;;;2.38;;
14799;SDS011;7491;57.750;11.970;2023-12-20T04:59:26;16.45;;;2.40;;
14799;SDS011;7491;57.750;11.970;2023-12-20T05:01:53;12.30;;;2.60;;
14799;SDS011;7491;57.750;11.970;2023-12-20T05:04:20;11.20;;;2.05;;
14799;SDS011;7491;57.750;11.970;2023-12-20T05:06:47;17.33;;;2.38;;
14799;SDS011;7491;57.750;11.970;2023-12-20T05:09:14;13.85;;;2.97;;
14799;SDS011;7491;57.750;11.970;2023-12-20T05:11:41;17.90;;;2.70;;
14799;SDS011;7491;57.750;11.970;2023-12-20T05:14:09;15.82;;;2.75;;
14799;SDS011;7491;57.750;11.970;2023-12-20T05:16:36;18.60;;;2.75;;
14799;SDS011;7491;57.750;11.970;2023-12-20T05:19:03;13.60;;;1.88;;
14799;SDS011;7491;57.750;11.970;2023-12-20T05:21:31;16.33;;;2.65;;
14799;SDS011;7491;57.750;11.970;2023-12-20T05:23:58;18.67;;;3.63;;
14799;SDS011;7491;57.750;11.970;2023-12-20T05:26:25;14.88;;;2.33;;
14799;SDS011;7491;57.750;11.970;2023-12-20T05:28:51;20.30;;;3.00;;
14799;SDS011;7491;57.750;11.970;2023-12-20T05:31:20;18.65;;;3.10;;
14799;SDS011;7491;57.750;11.970;2023-12-20T05:33:46;16.25;;;2.47;;
14799;SDS011;7491;57.750;11.970;2023-12-20T05:36:13;17.90;;;2.75;;
14799;SDS011;7491;57.750;11.970;2023-12-20T05:38:40;15.93;;;3.17;;
14799;SDS011;7491;57.750;11.970;2023-12-20T05:41:07;25.77;;;3.08;;
14799;SDS011;7491;57.750;11.970;2023-12-20T05:43:33;18.15;;;3.35;;
14799;SDS011;7491;57.750;11.970;2023-12-20T05:46:00;17.25;;;2.58;;
14799;SDS011;7491;57.750;11.970;2023-12-20T05:48:28;11.88;;;2.15;;
14799;SDS011;7491;57.750;11.970;2023-12-20T05:50:54;20.98;;;2.50;;
14799;SDS011;7491;57.750;11.970;2023-12-20T05:53:21;22.67;;;2.95;;
14799;SDS011;7491;57.750;11.970;2023-12-20T05:55:48;21.25;;;3.17;;
14799;SDS011;7491;57.750;11.970;2023-12-20T05:58:14;23.65;;;3.75;;
14799;SDS011;7491;57.750;11.970;2023-12-20T06:00:41;16.35;;;2.95;;
14799;SDS011;7491;57.750;11.970;2023-12-20T06:03:08;15.75;;;2.80;;
14799;SDS011;7491;57.750;11.970;2023-12-20T06:05:37;19.23;;;2.83;;
14799;SDS011;7491;57.750;11.970;2023-12-20T06:08:03;22.30;;;3.95;;
14799;SDS011;7491;57.750;11.970;2023-12-20T06:10:31;13.68;;;2.85;;
14799;SDS011;7491;57.750;11.970;2023-12-20T06:12:58;18.08;;;2.13;;
14799;SDS011;7491;57.750;11.970;2023-12-20T06:15:25;11.75;;;2.20;;
14799;SDS011;7491;57.750;11.970;2023-12-20T06:17:52;26.65;;;3.72;;
14799;SDS011;7491;57.750;11.970;2023-12-20T06:20:19;19.02;;;2.50;;
14799;SDS011;7491;57.750;11.970;2023-12-20T06:22:47;15.73;;;2.15;;
14799;SDS011;7491;57.750;11.970;2023-12-20T06:25:14;18.20;;;2.70;;
14799;SDS011;7491;57.750;11.970;2023-12-20T06:27:40;19.02;;;2.30;;
14799;SDS011;7491;57.750;11.970;2023-12-20T06:30:07;15.32;;;2.38;;
14799;SDS011;7491;57.750;11.970;2023-12-20T06:32:35;11.30;;;2.75;;
14799;SDS011;7491;57.750;11.970;2023-12-20T06:35:03;14.80;;;2.15;;
14799;SDS011;7491;57.750;11.970;2023-12-20T06:37:30;10.05;;;2.05;;
14799;SDS011;7491;57.750;11.970;2023-12-20T06:39:58;16.00;;;2.08;;
14799;SDS011;7491;57.750;11.970;2023-12-20T06:42:25;13.75;;;2.75;;
14799;SDS011;7491;57.750;11.970;2023-12-20T06:44:52;18.20;;;2.78;;
14799;SDS011;7491;57.750;11.970;2023-12-20T06:47:19;9.48;;;1.63;;
14799;SDS011;7491;57.750;11.970;2023-12-20T06:49:46;20.85;;;2.70;;
14799;SDS011;7491;57.750;11.970;2023-12-20T06:52:13;18.88;;;2.70;;
14799;SDS011;7491;57.750;11.970;2023-12-20T06:54:40;21.98;;;2.42;;
14799;SDS011;7491;57.750;11.970;2023-12-20T06:57:08;17.48;;;2.58;;
14799;SDS011;7491;57.750;11.970;2023-12-20T06:59:38;15.43;;;2.90;;
14799;SDS011;7491;57.750;11.970;2023-12-20T07:02:05;14.50;;;2.17;;
14799;SDS011;7491;57.750;11.970;2023-12-20T07:04:31;19.15;;;2.70;;
14799;SDS011;7491;57.750;11.970;2023-12-20T07:06:58;19.70;;;2.45;;
14799;SDS011;7491;57.750;11.970;2023-12-20T07:09:25;26.48;;;3.40;;
14799;SDS011;7491;57.750;11.970;2023-12-20T07:11:52;22.38;;;3.03;;
14799;SDS011;7491;57.750;11.970;2023-12-20T07:14:20;17.85;;;2.63;;
14799;SDS011;7491;57.750;11.970;2023-12-20T07:16:47;18.85;;;3.45;;
14799;SDS011;7491;57.750;11.970;2023-12-20T07:19:14;17.90;;;3.08;;
14799;SDS011;7491;57.750;11.970;2023-12-20T07:21:41;13.75;;;2.60;;
14799;SDS011;7491;57.750;11.970;2023-12-20T07:24:08;15.88;;;2.55;;
14799;SDS011;7491;57.750;11.970;2023-12-20T07:26:35;13.65;;;2.50;;
14799;SDS011;7491;57.750;11.970;2023-12-20T07:29:02;16.92;;;2.20;;
14799;SDS011;7491;57.750;11.970;2023-12-20T07:31:31;18.48;;;4.05;;
14799;SDS011;7491;57.750;11.970;2023-12-20T07:33:57;18.15;;;2.78;;
14799;SDS011;7491;57.750;11.970;2023-12-20T07:36:24;12.25;;;2.40;;
14799;SDS011;7491;57.750;11.970;2023-12-20T07:38:51;20.02;;;3.05;;
14799;SDS011;7491;57.750;11.970;2023-12-20T07:41:17;8.85;;;2.13;;
14799;SDS011;7491;57.750;11.970;2023-12-20T07:43:46;25.27;;;3.08;;
14799;SDS011;7491;57.750;11.970;2023-12-20T07:46:12;14.88;;;2.95;;
14799;SDS011;7491;57.750;11.970;2023-12-20T07:48:41;21.73;;;2.85;;
14799;SDS011;7491;57.750;11.970;2023-12-20T07:51:07;11.20;;;2.13;;
14799;SDS011;7491;57.750;11.970;2023-12-20T07:53:35;15.68;;;2.38;;
14799;SDS011;7491;57.750;11.970;2023-12-20T07:56:02;12.90;;;2.75;;
14799;SDS011;7491;57.750;11.970;2023-12-20T07:58:40;19.83;;;3.72;;
14799;SDS011;7491;57.750;11.970;2023-12-20T08:01:07;16.80;;;3.03;;
14799;SDS011;7491;57.750;11.970;2023-12-20T08:03:33;19.85;;;4.88;;
14799;SDS011;7491;57.750;11.970;2023-12-20T08:06:02;21.60;;;3.95;;
14799;SDS011;7491;57.750;11.970;2023-12-20T08:08:29;19.35;;;3.08;;
14799;SDS011;7491;57.750;11.970;2023-12-20T08:10:55;16.30;;;3.67;;
14799;SDS011;7491;57.750;11.970;2023-12-20T08:13:24;24.55;;;3.35;;
14799;SDS011;7491;57.750;11.970;2023-12-20T08:15:51;18.60;;;3.20;;
14799;SDS011;7491;57.750;11.970;2023-12-20T08:18:18;15.15;;;3.10;;
14799;SDS011;7491;57.750;11.970;2023-12-20T08:20:44;15.10;;;3.10;;
14799;SDS011;7491;57.750;11.970;2023-12-20T08:23:13;25.08;;;3.50;;
14799;SDS011;7491;57.750;11.970;2023-12-20T08:25:40;16.90;;;2.83;;
14799;SDS011;7491;57.750;11.970;2023-12-20T08:28:07;16.98;;;2.60;;
14799;SDS011;7491;57.750;11.970;2023-12-20T08:30:34;25.25;;;5.53;;
14799;SDS011;7491;57.750;11.970;2023-12-20T08:33:01;28.40;;;5.38;;
14799;SDS011;7491;57.750;11.970;2023-12-20T08:35:27;24.45;;;4.70;;
14799;SDS011;7491;57.750;11.970;2023-12-20T08:37:54;23.88;;;3.92;;
14799;SDS011;7491;57.750;11.970;2023-12-20T08:40:22;21.88;;;4.25;;
14799;SDS011;7491;57.750;11.970;2023-12-20T08:42:49;21.58;;;4.65;;
14799;SDS011;7491;57.750;11.970;2023-12-20T08:45:15;19.30;;;3.58;;
14799;SDS011;7491;57.750;11.970;2023-12-20T08:47:42;22.90;;;3.17;;
14799;SDS011;7491;57.750;11.970;2023-12-20T08:50:10;20.50;;;3.67;;
14799;SDS011;7491;57.750;11.970;2023-12-20T08:52:37;22.25;;;3.67;;
14799;SDS011;7491;57.750;11.970;2023-12-20T08:55:04;18.23;;;3.03;;
14799;SDS011;7491;57.750;11.970;2023-12-20T08:57:33;24.17;;;2.90;;
14799;SDS011;7491;57.750;11.970;2023-12-20T08:59:59;31.48;;;3.83;;
14799;SDS011;7491;57.750;11.970;2023-12-20T09:02:26;20.83;;;3.50;;
14799;SDS011;7491;57.750;11.970;2023-12-20T09:04:54;20.10;;;3.28;;
14799;SDS011;7491;57.750;11.970;2023-12-20T09:07:21;21.58;;;2.65;;
14799;SDS011;7491;57.750;11.970;2023-12-20T09:09:48;28.02;;;3.65;;
14799;SDS011;7491;57.750;11.970;2023-12-20T09:12:15;22.10;;;3.05;;
14799;SDS011;7491;57.750;11.970;2023-12-20T09:14:43;16.98;;;3.10;;
14799;SDS011;7491;57.750;11.970;2023-12-20T09:17:10;27.90;;;3.42;;
14799;SDS011;7491;57.750;11.970;2023-12-20T09:19:37;27.60;;;4.47;;
14799;SDS011;7491;57.750;11.970;2023-12-20T09:22:04;27.13;;;3.40;;
14799;SDS011;7491;57.750;11.970;2023-12-20T09:24:30;25.02;;;4.13;;
14799;SDS011;7491;57.750;11.970;2023-12-20T09:26:57;23.67;;;3.72;;
14799;SDS011;7491;57.750;11.970;2023-12-20T09:29:24;27.88;;;3.88;;
14799;SDS011;7491;57.750;11.970;2023-12-20T09:31:52;24.17;;;3.85;;
14799;SDS011;7491;57.750;11.970;2023-12-20T09:34:19;20.05;;;3.97;;
14799;SDS011;7491;57.750;11.970;2023-12-20T09:36:46;30.52;;;4.15;;
14799;SDS011;7491;57.750;11.970;2023-12-20T09:39:13;21.48;;;4.20;;
14799;SDS011;7491;57.750;11.970;2023-12-20T09:41:42;27.15;;;4.32;;
14799;SDS011;7491;57.750;11.970;2023-12-20T09:44:13;20.00;;;4.22;;
14799;SDS011;7491;57.750;11.970;2023-12-20T09:46:43;27.38;;;4.72;;
14799;SDS011;7491;57.750;11.970;2023-12-20T09:49:12;33.25;;;4.60;;
14799;SDS011;7491;57.750;11.970;2023-12-20T09:51:39;28.52;;;4.40;;
14799;SDS011;7491;57.750;11.970;2023-12-20T09:54:07;31.08;;;4.00;;
14799;SDS011;7491;57.750;11.970;2023-12-20T09:56:36;32.20;;;4.60;;
14799;SDS011;7491;57.750;11.970;2023-12-20T09:59:03;26.70;;;4.28;;
14799;SDS011;7491;57.750;11.970;2023-12-20T10:01:30;32.28;;;5.15;;
14799;SDS011;7491;57.750;11.970;2023-12-20T10:03:58;28.10;;;4.82;;
14799;SDS011;7491;57.750;11.970;2023-12-20T10:06:28;31.20;;;5.13;;
14799;SDS011;7491;57.750;11.970;2023-12-20T10:08:55;28.45;;;5.03;;
14799;SDS011;7491;57.750;11.970;2023-12-20T10:11:21;28.25;;;4.95;;
14799;SDS011;7491;57.750;11.970;2023-12-20T10:13:48;22.63;;;4.65;;
14799;SDS011;7491;57.750;11.970;2023-12-20T10:16:15;25.30;;;4.20;;
14799;SDS011;7491;57.750;11.970;2023-12-20T10:18:41;34.05;;;4.82;;
14799;SDS011;7491;57.750;11.970;2023-12-20T10:21:08;23.85;;;5.28;;
14799;SDS011;7491;57.750;11.970;2023-12-20T10:23:38;22.70;;;4.35;;
14799;SDS011;7491;57.750;11.970;2023-12-20T10:26:21;27.83;;;4.90;;
14799;SDS011;7491;57.750;11.970;2023-12-20T10:28:50;29.38;;;5.10;;
14799;SDS011;7491;57.750;11.970;2023-12-20T10:31:27;30.60;;;5.40;;
14799;SDS011;7491;57.750;11.970;2023-12-20T10:33:56;30.42;;;4.80;;
14799;SDS011;7491;57.750;11.970;2023-12-20T10:36:24;26.33;;;4.95;;
14799;SDS011;7491;57.750;11.970;2023-12-20T10:38:57;21.90;;;4.72;;
14799;SDS011;7491;57.750;11.970;2023-12-20T10:41:24;21.52;;;4.82;;
14799;SDS011;7491;57.750;11.970;2023-12-20T10:43:53;28.73;;;5.35;;
14799;SDS011;7491;57.750;11.970;2023-12-20T10:46:22;18.77;;;4.03;;
14799;SDS011;7491;57.750;11.970;2023-12-20T10:48:51;18.80;;;6.40;;
14799;SDS011;7491;57.750;11.970;2023-12-20T10:51:19;23.58;;;5.72;;
14799;SDS011;7491;57.750;11.970;2023-12-20T10:53:48;25.42;;;6.00;;
14799;SDS011;7491;57.750;11.970;2023-12-20T10:56:17;38.45;;;5.70;;
14799;SDS011;7491;57.750;11.970;2023-12-20T10:58:45;22.60;;;5.45;;
14799;SDS011;7491;57.750;11.970;2023-12-20T11:01:13;35.58;;;5.97;;
14799;SDS011;7491;57.750;11.970;2023-12-20T11:03:43;27.38;;;5.95;;
14799;SDS011;7491;57.750;11.970;2023-12-20T11:06:16;22.75;;;5.30;;
14799;SDS011;7491;57.750;11.970;2023-12-20T11:08:54;19.73;;;5.60;;
14799;SDS011;7491;57.750;11.970;2023-12-20T11:11:37;24.15;;;5.82;;
14799;SDS011;7491;57.750;11.970;2023-12-20T11:14:12;28.73;;;5.30;;
14799;SDS011;7491;57.750;11.970;2023-12-20T11:16:43;28.92;;;6.65;;
14799;SDS011;7491;57.750;11.970;2023-12-20T11:19:11;26.25;;;5.93;;
14799;SDS011;7491;57.750;11.970;2023-12-20T11:21:39;25.67;;;5.45;;
14799;SDS011;7491;57.750;11.970;2023-12-20T11:24:06;19.48;;;5.45;;
14799;SDS011;7491;57.750;11.970;2023-12-20T11:26:33;21.48;;;6.47;;
14799;SDS011;7491;57.750;11.970;2023-12-20T11:32:01;19.60;;;5.30;;
14799;SDS011;7491;57.750;11.970;2023-12-20T11:34:31;15.73;;;5.10;;
14799;SDS011;7491;57.750;11.970;2023-12-20T11:36:59;13.95;;;4.93;;
14799;SDS011;7491;57.750;11.970;2023-12-20T11:39:26;15.35;;;4.65;;
14799;SDS011;7491;57.750;11.970;2023-12-20T11:41:54;16.27;;;5.32;;
14799;SDS011;7491;57.750;11.970;2023-12-20T11:44:22;13.57;;;5.05;;
14799;SDS011;7491;57.750;11.970;2023-12-20T11:46:52;16.25;;;4.70;;
14799;SDS011;7491;57.750;11.970;2023-12-20T11:49:22;16.58;;;5.30;;
14799;SDS011;7491;57.750;11.970;2023-12-20T11:51:50;13.18;;;4.38;;
14799;SDS011;7491;57.750;11.970;2023-12-20T11:54:17;17.98;;;4.65;;
14799;SDS011;7491;57.750;11.970;2023-12-20T11:56:43;17.17;;;4.93;;
14799;SDS011;7491;57.750;11.970;2023-12-20T11:59:10;21.92;;;5.13;;
14799;SDS011;7491;57.750;11.970;2023-12-20T12:01:37;15.95;;;4.53;;
14799;SDS011;7491;57.750;11.970;2023-12-20T12:04:05;16.35;;;5.15;;
14799;SDS011;7491;57.750;11.970;2023-12-20T12:06:32;18.35;;;4.35;;
14799;SDS011;7491;57.750;11.970;2023-12-20T12:08:58;12.93;;;5.32;;
14799;SDS011;7491;57.750;11.970;2023-12-20T12:11:25;15.27;;;4.30;;
14799;SDS011;7491;57.750;11.970;2023-12-20T12:13:52;12.95;;;5.07;;
14799;SDS011;7491;57.750;11.970;2023-12-20T12:16:19;15.65;;;5.45;;
14799;SDS011;7491;57.750;11.970;2023-12-20T12:18:46;19.63;;;5.13;;
14799;SDS011;7491;57.750;11.970;2023-12-20T12:21:22;14.52;;;4.40;;
14799;SDS011;7491;57.750;11.970;2023-12-20T12:23:48;16.48;;;4.63;;
14799;SDS011;7491;57.750;11.970;2023-12-20T12:26:15;12.27;;;4.63;;
14799;SDS011;7491;57.750;11.970;2023-12-20T12:28:42;11.18;;;4.10;;
14799;SDS011;7491;57.750;11.970;2023-12-20T12:31:12;16.98;;;4.72;;
14799;SDS011;7491;57.750;11.970;2023-12-20T12:33:40;16.42;;;4.63;;
14799;SDS011;7491;57.750;11.970;2023-12-20T12:36:08;13.38;;;4.05;;
14799;SDS011;7491;57.750;11.970;2023-12-20T12:38:37;12.27;;;4.43;;
14799;SDS011;7491;57.750;11.970;2023-12-20T12:41:04;16.10;;;4.65;;
14799;SDS011;7491;57.750;11.970;2023-12-20T12:43:32;13.10;;;4.32;;
14799;SDS011;7491;57.750;11.970;2023-12-20T12:45:59;12.85;;;4.68;;
14799;SDS011;7491;57.750;11.970;2023-12-20T12:48:25;10.68;;;4.18;;
14799;SDS011;7491;57.750;11.970;2023-12-20T12:50:53;14.50;;;4.70;;
14799;SDS011;7491;57.750;11.970;2023-12-20T12:53:23;11.85;;;4.50;;
14799;SDS011;7491;57.750;11.970;2023-12-20T12:55:52;17.73;;;4.35;;
14799;SDS011;7491;57.750;11.970;2023-12-20T12:58:19;18.20;;;4.30;;
14799;SDS011;7491;57.750;11.970;2023-12-20T13:00:45;14.77;;;4.43;;
14799;SDS011;7491;57.750;11.970;2023-12-20T13:03:12;15.95;;;4.15;;
14799;SDS011;7491;57.750;11.970;2023-12-20T13:05:39;14.10;;;4.32;;
14799;SDS011;7491;57.750;11.970;2023-12-20T13:08:06;11.00;;;4.03;;
14799;SDS011;7491;57.750;11.970;2023-12-20T13:10:34;9.55;;;3.85;;
14799;SDS011;7491;57.750;11.970;2023-12-20T13:13:02;10.45;;;3.97;;
14799;SDS011;7491;57.750;11.970;2023-12-20T13:15:29;13.60;;;3.53;;
14799;SDS011;7491;57.750;11.970;2023-12-20T13:17:56;12.82;;;4.75;;
14799;SDS011;7491;57.750;11.970;2023-12-20T13:20:23;16.65;;;4.93;;
14799;SDS011;7491;57.750;11.970;2023-12-20T13:22:50;12.02;;;4.20;;
14799;SDS011;7491;57.750;11.970;2023-12-20T13:25:16;13.68;;;4.45;;
14799;SDS011;7491;57.750;11.970;2023-12-20T13:27:43;12.52;;;4.07;;
14799;SDS011;7491;57.750;11.970;2023-12-20T13:30:11;12.90;;;4.32;;
14799;SDS011;7491;57.750;11.970;2023-12-20T13:32:38;13.30;;;4.78;;
14799;SDS011;7491;57.750;11.970;2023-12-20T13:35:05;10.30;;;4.25;;
14799;SDS011;7491;57.750;11.970;2023-12-20T13:37:32;17.10;;;4.30;;
14799;SDS011;7491;57.750;11.970;2023-12-20T13:39:59;13.90;;;4.03;;
14799;SDS011;7491;57.750;11.970;2023-12-20T13:42:26;11.70;;;4.68;;
14799;SDS011;7491;57.750;11.970;2023-12-20T13:44:53;11.07;;;4.82;;
14799;SDS011;7491;57.750;11.970;2023-12-20T13:47:22;8.88;;;4.15;;
14799;SDS011;7491;57.750;11.970;2023-12-20T13:49:49;15.35;;;4.50;;
14799;SDS011;7491;57.750;11.970;2023-12-20T13:52:15;12.47;;;5.30;;
14799;SDS011;7491;57.750;11.970;2023-12-20T13:54:42;12.20;;;4.43;;
14799;SDS011;7491;57.750;11.970;2023-12-20T13:57:09;11.77;;;4.20;;
14799;SDS011;7491;57.750;11.970;2023-12-20T13:59:35;11.77;;;4.70;;
14799;SDS011;7491;57.750;11.970;2023-12-20T14:02:02;9.23;;;4.40;;
14799;SDS011;7491;57.750;11.970;2023-12-20T14:04:31;16.85;;;4.47;;
14799;SDS011;7491;57.750;11.970;2023-12-20T14:06:57;11.52;;;4.88;;
14799;SDS011;7491;57.750;11.970;2023-12-20T14:09:24;11.00;;;4.90;;
14799;SDS011;7491;57.750;11.970;2023-12-20T14:11:51;11.20;;;4.07;;
14799;SDS011;7491;57.750;11.970;2023-12-20T14:14:16;12.07;;;4.72;;
14799;SDS011;7491;57.750;11.970;2023-12-20T14:16:43;11.90;;;4.95;;
14799;SDS011;7491;57.750;11.970;2023-12-20T14:19:10;11.25;;;4.47;;
14799;SDS011;7491;57.750;11.970;2023-12-20T14:21:38;13.35;;;4.25;;
14799;SDS011;7491;57.750;11.970;2023-12-20T14:24:05;13.35;;;5.53;;
14799;SDS011;7491;57.750;11.970;2023-12-20T14:26:32;12.80;;;4.38;;
14799;SDS011;7491;57.750;11.970;2023-12-20T14:28:59;11.45;;;4.50;;
14799;SDS011;7491;57.750;11.970;2023-12-20T14:31:26;16.77;;;4.82;;
14799;SDS011;7491;57.750;11.970;2023-12-20T14:33:52;16.70;;;5.30;;
14799;SDS011;7491;57.750;11.970;2023-12-20T14:36:19;10.10;;;4.18;;
14799;SDS011;7491;57.750;11.970;2023-12-20T14:38:49;15.50;;;4.45;;